createdAt,value
2023-03-02T00:00:26.932Z,6.80
2023-03-02T00:01:38.176Z,6.70
2023-03-02T00:02:41.170Z,6.80
2023-03-02T00:03:43.151Z,6.70
2023-03-02T00:04:53.352Z,6.70
2023-03-02T00:05:56.467Z,6.70
2023-03-02T00:07:03.049Z,6.70
2023-03-02T00:08:07.272Z,6.70
2023-03-02T00:09:09.345Z,6.70
2023-03-02T00:10:12.296Z,6.70
2023-03-02T00:11:15.858Z,6.70
2023-03-02T00:12:19.236Z,6.70
2023-03-02T00:13:21.725Z,6.70
2023-03-02T00:14:23.710Z,6.70
2023-03-02T00:15:25.926Z,6.70
2023-03-02T00:16:27.651Z,6.70
2023-03-02T00:17:32.134Z,6.60
2023-03-02T00:18:34.189Z,6.60
2023-03-02T00:19:37.706Z,6.60
2023-03-02T00:20:40.235Z,6.60
2023-03-02T00:21:42.441Z,6.60
2023-03-02T00:22:46.301Z,6.60
2023-03-02T00:23:48.309Z,6.60
2023-03-02T00:24:50.082Z,6.60
2023-03-02T00:25:51.966Z,6.60
2023-03-02T00:26:53.979Z,6.60
2023-03-02T00:27:57.589Z,6.60
2023-03-02T00:29:01.235Z,6.60
2023-03-02T00:30:06.678Z,6.60
2023-03-02T00:31:08.467Z,6.60
2023-03-02T00:32:14.441Z,6.60
2023-03-02T00:33:16.284Z,6.60
2023-03-02T00:34:18.228Z,6.60
2023-03-02T00:35:20.395Z,6.60
2023-03-02T00:36:23.551Z,6.60
2023-03-02T00:37:26.097Z,6.60
2023-03-02T00:38:32.724Z,6.60
2023-03-02T00:39:34.515Z,6.60
2023-03-02T00:40:36.571Z,6.60
2023-03-02T00:41:39.702Z,6.70
2023-03-02T00:42:46.157Z,6.60
2023-03-02T00:43:48.653Z,6.60
2023-03-02T00:44:56.418Z,6.60
2023-03-02T00:45:59.375Z,6.60
2023-03-02T00:47:01.162Z,6.60
2023-03-02T00:48:05.592Z,6.50
2023-03-02T00:49:07.323Z,6.50
2023-03-02T00:50:10.078Z,6.50
2023-03-02T00:51:14.602Z,6.50
2023-03-02T00:52:17.654Z,6.50
2023-03-02T00:53:19.449Z,6.50
2023-03-02T00:54:21.196Z,6.50
2023-03-02T00:55:23.125Z,6.50
2023-03-02T00:56:24.866Z,6.50
2023-03-02T00:57:32.161Z,6.40
2023-03-02T00:58:33.972Z,6.40
2023-03-02T00:59:39.690Z,6.40
2023-03-02T01:00:41.677Z,6.40
2023-03-02T01:01:44.171Z,6.40
2023-03-02T01:02:47.348Z,6.30
2023-03-02T01:03:49.177Z,6.30
2023-03-02T01:04:53.237Z,6.30
2023-03-02T01:05:55.806Z,6.30
2023-03-02T01:06:59.676Z,6.30
2023-03-02T01:08:05.174Z,6.20
2023-03-02T01:09:08.008Z,6.20
2023-03-02T01:10:10.761Z,6.20
2023-03-02T01:11:17.617Z,6.20
2023-03-02T01:12:19.488Z,6.20
2023-03-02T01:13:21.901Z,5.90
2023-03-02T01:14:26.065Z,6.10
2023-03-02T01:15:27.854Z,6.10
2023-03-02T01:16:31.224Z,6.10
2023-03-02T01:17:33.604Z,6.10
2023-03-02T01:18:38.883Z,6.10
2023-03-02T01:19:41.851Z,6.10
2023-03-02T01:20:45.301Z,6.10
2023-03-02T01:21:47.896Z,6.10
2023-03-02T01:22:50.284Z,6.10
2023-03-02T01:23:55.131Z,6.10
2023-03-02T01:24:56.940Z,6.10
2023-03-02T01:25:58.767Z,6.10
2023-03-02T01:27:01.437Z,6.10
2023-03-02T01:28:03.895Z,6.10
2023-03-02T01:29:07.972Z,6.10
2023-03-02T01:30:10.968Z,6.10
2023-03-02T01:31:16.967Z,6.10
2023-03-02T01:32:21.570Z,6.10
2023-03-02T01:33:23.378Z,6.10
2023-03-02T01:34:25.371Z,6.00
2023-03-02T01:35:27.142Z,6.00
2023-03-02T01:36:29.341Z,6.00
2023-03-02T01:37:33.247Z,6.00
2023-03-02T01:38:37.727Z,6.00
2023-03-02T01:39:39.583Z,6.00
2023-03-02T01:40:42.443Z,6.00
2023-03-02T01:41:45.895Z,6.00
2023-03-02T01:42:57.806Z,6.00
2023-03-02T01:43:59.554Z,6.00
2023-03-02T01:45:02.181Z,6.00
2023-03-02T01:46:12.427Z,6.00
2023-03-02T01:47:38.256Z,6.00
2023-03-02T01:48:51.194Z,5.90
2023-03-02T01:50:00.974Z,5.90
2023-03-02T01:51:05.386Z,5.90
2023-03-02T01:52:19.498Z,6.10
2023-03-02T01:53:23.762Z,5.90
2023-03-02T01:54:25.807Z,5.90
2023-03-02T01:55:33.102Z,5.80
2023-03-02T01:56:38.754Z,5.80
2023-03-02T01:57:45.102Z,5.80
2023-03-02T01:58:50.837Z,5.80
2023-03-02T02:00:01.033Z,5.80
2023-03-02T02:01:03.709Z,5.80
2023-03-02T02:02:09.061Z,5.80
2023-03-02T02:03:21.676Z,5.80
2023-03-02T02:04:25.547Z,5.80
2023-03-02T02:05:28.294Z,5.80
2023-03-02T02:06:43.900Z,5.80
2023-03-02T02:07:46.280Z,5.80
2023-03-02T02:08:49.435Z,5.80
2023-03-02T02:09:53.053Z,5.80
2023-03-02T02:10:55.553Z,5.80
2023-03-02T02:11:57.591Z,5.80
2023-03-02T02:12:59.991Z,5.80
2023-03-02T02:14:04.224Z,5.80
2023-03-02T02:15:06.791Z,5.70
2023-03-02T02:16:09.136Z,5.70
2023-03-02T02:17:12.575Z,5.70
2023-03-02T02:18:14.893Z,5.70
2023-03-02T02:19:37.718Z,5.70
2023-03-02T02:20:42.775Z,5.70
2023-03-02T02:21:44.540Z,5.70
2023-03-02T02:23:23.209Z,5.70
2023-03-02T02:24:32.446Z,5.70
2023-03-02T02:25:37.461Z,5.70
2023-03-02T02:26:47.037Z,5.70
2023-03-02T02:27:49.109Z,5.70
2023-03-02T02:29:14.641Z,5.70
2023-03-02T02:30:19.710Z,5.60
2023-03-02T02:31:26.860Z,5.60
2023-03-02T02:32:34.139Z,5.60
2023-03-02T02:33:37.988Z,5.60
2023-03-02T02:34:48.119Z,5.60
2023-03-02T02:35:55.697Z,5.60
2023-03-02T02:37:22.393Z,5.60
2023-03-02T02:38:25.462Z,5.50
2023-03-02T02:39:33.248Z,5.60
2023-03-02T02:40:45.469Z,5.50
2023-03-02T02:41:49.506Z,5.50
2023-03-02T02:42:52.803Z,5.50
2023-03-02T02:43:55.542Z,5.40
2023-03-02T02:45:01.761Z,5.40
2023-03-02T02:46:04.397Z,5.40
2023-03-02T02:47:18.647Z,5.40
2023-03-02T02:48:24.255Z,5.40
2023-03-02T02:49:36.017Z,5.40
2023-03-02T02:50:38.404Z,5.40
2023-03-02T02:51:40.707Z,5.40
2023-03-02T02:52:44.606Z,5.40
2023-03-02T02:54:04.727Z,5.30
2023-03-02T02:55:07.165Z,5.40
2023-03-02T02:56:10.697Z,5.30
2023-03-02T02:57:13.682Z,5.30
2023-03-02T02:58:34.056Z,5.30
2023-03-02T02:59:59.568Z,5.30
2023-03-02T03:01:02.393Z,5.30
2023-03-02T03:02:04.250Z,5.30
2023-03-02T03:03:29.523Z,5.30
2023-03-02T03:04:32.700Z,5.30
2023-03-02T03:05:35.165Z,5.20
2023-03-02T03:06:42.741Z,5.20
2023-03-02T03:07:45.112Z,5.20
2023-03-02T03:08:49.124Z,5.20
2023-03-02T03:09:59.737Z,5.20
2023-03-02T03:11:02.117Z,5.20
2023-03-02T03:12:20.703Z,5.20
2023-03-02T03:13:22.423Z,5.20
2023-03-02T03:14:36.707Z,5.10
2023-03-02T03:15:38.833Z,5.10
2023-03-02T03:16:43.537Z,5.10
2023-03-02T03:17:57.490Z,5.10
2023-03-02T03:19:12.543Z,5.10
2023-03-02T03:20:17.160Z,5.10
2023-03-02T03:21:19.027Z,5.10
2023-03-02T03:22:20.917Z,5.10
2023-03-02T03:23:22.818Z,5.10
2023-03-02T03:24:27.532Z,5.10
2023-03-02T03:25:29.440Z,5.10
2023-03-02T03:26:34.251Z,5.10
2023-03-02T03:27:36.441Z,5.10
2023-03-02T03:28:38.168Z,5.10
2023-03-02T03:29:42.565Z,5.10
2023-03-02T03:30:47.257Z,5.10
2023-03-02T03:31:49.081Z,5.10
2023-03-02T03:32:50.932Z,5.10
2023-03-02T03:33:54.127Z,5.10
2023-03-02T03:34:56.767Z,5.10
2023-03-02T03:35:58.743Z,5.10
2023-03-02T03:37:01.992Z,5.10
2023-03-02T03:38:07.458Z,5.10
2023-03-02T03:39:10.657Z,5.10
2023-03-02T03:40:12.575Z,5.10
2023-03-02T03:41:17.661Z,5.10
2023-03-02T03:42:20.899Z,5.10
2023-03-02T03:43:25.481Z,5.10
2023-03-02T03:44:27.798Z,5.10
2023-03-02T03:45:30.482Z,5.10
2023-03-02T03:46:34.059Z,5.10
2023-03-02T03:47:37.058Z,5.10
2023-03-02T03:48:39.052Z,5.10
2023-03-02T03:49:41.359Z,5.00
2023-03-02T03:50:45.460Z,5.00
2023-03-02T03:51:49.174Z,5.00
2023-03-02T03:52:51.126Z,5.00
2023-03-02T03:54:02.262Z,5.00
2023-03-02T03:55:04.859Z,5.00
2023-03-02T03:56:07.316Z,5.00
2023-03-02T03:57:11.327Z,5.00
2023-03-02T03:58:14.649Z,5.00
2023-03-02T03:59:24.648Z,4.90
2023-03-02T04:00:27.384Z,4.90
2023-03-02T04:01:35.244Z,4.90
2023-03-02T04:02:42.948Z,4.90
2023-03-02T04:03:46.350Z,5.00
2023-03-02T04:04:48.393Z,4.90
2023-03-02T04:05:50.449Z,4.90
2023-03-02T04:06:53.511Z,4.90
2023-03-02T04:07:55.220Z,4.90
2023-03-02T04:08:57.147Z,4.90
2023-03-02T04:10:05.359Z,4.90
2023-03-02T04:11:07.129Z,4.90
2023-03-02T04:12:09.546Z,4.90
2023-03-02T04:13:11.657Z,4.90
2023-03-02T04:14:15.292Z,4.90
2023-03-02T04:15:17.622Z,4.90
2023-03-02T04:16:20.093Z,4.90
2023-03-02T04:17:22.157Z,4.90
2023-03-02T04:18:24.101Z,4.90
2023-03-02T04:19:26.064Z,4.80
2023-03-02T04:20:30.690Z,4.90
2023-03-02T04:24:39.580Z,4.80
2023-03-02T04:25:41.998Z,4.70
2023-03-02T04:26:45.783Z,4.70
2023-03-02T04:27:50.438Z,4.70
2023-03-02T04:28:52.652Z,4.70
2023-03-02T04:29:54.709Z,4.70
2023-03-02T04:30:56.335Z,4.70
2023-03-02T04:31:58.300Z,4.70
2023-03-02T04:33:41.818Z,4.70
2023-03-02T04:34:44.702Z,4.70
2023-03-02T04:35:50.909Z,4.70
2023-03-02T04:36:52.838Z,4.70
2023-03-02T04:37:54.748Z,4.70
2023-03-02T04:38:56.631Z,4.70
2023-03-02T04:39:58.660Z,4.70
2023-03-02T04:41:00.407Z,4.70
2023-03-02T04:42:02.444Z,4.70
2023-03-02T04:43:04.052Z,4.70
2023-03-02T04:44:05.791Z,4.70
2023-03-02T04:45:10.536Z,4.70
2023-03-02T04:46:23.901Z,4.70
2023-03-02T04:47:25.535Z,4.60
2023-03-02T04:48:27.322Z,4.60
2023-03-02T04:49:29.060Z,4.70
2023-03-02T04:50:31.133Z,4.60
2023-03-02T04:51:38.938Z,4.70
2023-03-02T04:52:41.138Z,4.70
2023-03-02T04:53:42.982Z,4.70
2023-03-02T04:54:45.800Z,4.70
2023-03-02T04:55:49.089Z,4.70
2023-03-02T04:56:52.327Z,4.70
2023-03-02T04:57:55.126Z,4.70
2023-03-02T04:58:59.008Z,4.60
2023-03-02T05:00:00.768Z,4.70
2023-03-02T05:01:03.649Z,4.70
2023-03-02T05:02:08.973Z,4.60
2023-03-02T05:03:10.929Z,4.60
2023-03-02T05:04:14.274Z,4.60
2023-03-02T05:05:24.332Z,4.50
2023-03-02T05:06:27.524Z,4.50
2023-03-02T05:07:29.101Z,4.40
2023-03-02T05:08:32.338Z,4.40
2023-03-02T05:09:34.008Z,4.40
2023-03-02T05:10:35.638Z,4.40
2023-03-02T05:11:38.512Z,4.30
2023-03-02T05:12:54.599Z,4.30
2023-03-02T05:13:59.719Z,4.30
2023-03-02T05:15:01.322Z,4.20
2023-03-02T05:16:03.085Z,4.20
2023-03-02T05:17:04.902Z,4.20
2023-03-02T05:18:10.910Z,4.20
2023-03-02T05:19:13.576Z,4.20
2023-03-02T05:20:16.463Z,4.20
2023-03-02T05:21:19.641Z,4.10
2023-03-02T05:22:21.543Z,3.90
2023-03-02T05:23:27.564Z,4.10
2023-03-02T05:24:29.395Z,4.10
2023-03-02T05:25:33.518Z,4.10
2023-03-02T05:26:35.789Z,4.10
2023-03-02T05:27:38.718Z,4.10
2023-03-02T05:28:42.137Z,4.00
2023-03-02T05:29:44.350Z,4.00
2023-03-02T05:30:47.200Z,4.00
2023-03-02T05:31:49.492Z,4.00
2023-03-02T05:32:56.017Z,4.00
2023-03-02T05:34:23.520Z,4.10
2023-03-02T05:35:26.625Z,4.10
2023-03-02T05:36:28.676Z,4.00
2023-03-02T05:37:32.029Z,4.10
2023-03-02T05:38:35.665Z,4.10
2023-03-02T05:39:37.569Z,4.10
2023-03-02T05:40:42.613Z,4.00
2023-03-02T05:41:44.361Z,4.10
2023-03-02T05:42:46.397Z,4.00
2023-03-02T05:43:48.201Z,4.10
2023-03-02T05:44:50.149Z,4.00
2023-03-02T05:45:51.823Z,4.10
2023-03-02T05:46:56.856Z,4.10
2023-03-02T05:47:58.776Z,4.00
2023-03-02T05:49:00.403Z,4.00
2023-03-02T05:50:02.411Z,4.00
2023-03-02T05:51:04.384Z,4.00
2023-03-02T05:52:06.317Z,4.00
2023-03-02T05:53:08.066Z,4.00
2023-03-02T05:54:09.961Z,4.00
2023-03-02T05:55:12.686Z,3.90
2023-03-02T05:56:14.335Z,3.90
2023-03-02T05:57:16.509Z,3.90
2023-03-02T05:58:19.633Z,3.90
2023-03-02T05:59:21.675Z,3.90
2023-03-02T06:00:26.304Z,3.90
2023-03-02T06:01:28.545Z,3.90
2023-03-02T06:02:30.865Z,3.90
2023-03-02T06:03:33.961Z,4.00
2023-03-02T06:04:43.291Z,4.00
2023-03-02T06:05:45.237Z,4.00
2023-03-02T06:06:47.948Z,4.00
2023-03-02T06:07:49.662Z,4.10
2023-03-02T06:08:55.993Z,4.10
2023-03-02T06:09:58.055Z,4.10
2023-03-02T06:10:59.906Z,4.10
2023-03-02T06:12:02.296Z,4.10
2023-03-02T06:13:04.143Z,4.20
2023-03-02T06:14:06.106Z,4.20
2023-03-02T06:15:08.781Z,4.20
2023-03-02T06:16:10.743Z,4.20
2023-03-02T06:17:12.731Z,4.20
2023-03-02T06:18:15.507Z,4.20
2023-03-02T06:19:17.216Z,4.10
2023-03-02T06:20:19.126Z,4.30
2023-03-02T06:21:20.922Z,4.40
2023-03-02T06:22:22.759Z,4.40
2023-03-02T06:23:24.538Z,4.50
2023-03-02T06:24:26.491Z,4.50
2023-03-02T06:25:28.293Z,4.50
2023-03-02T06:26:30.492Z,4.50
2023-03-02T06:27:33.926Z,4.60
2023-03-02T06:28:49.802Z,4.60
2023-03-02T06:29:54.573Z,4.80
2023-03-02T06:30:56.385Z,4.60
2023-03-02T06:31:58.447Z,4.60
2023-03-02T06:33:00.389Z,4.70
2023-03-02T06:34:02.177Z,4.70
2023-03-02T06:35:05.745Z,4.70
2023-03-02T06:36:09.229Z,4.70
2023-03-02T06:37:11.142Z,4.80
2023-03-02T06:38:14.324Z,4.80
2023-03-02T06:39:16.150Z,4.80
2023-03-02T06:40:22.015Z,4.80
2023-03-02T06:41:24.515Z,4.90
2023-03-02T06:42:28.145Z,4.90
2023-03-02T06:43:30.530Z,4.90
2023-03-02T06:44:32.277Z,4.90
2023-03-02T06:45:34.281Z,4.90
2023-03-02T06:46:36.670Z,4.90
2023-03-02T06:47:38.872Z,4.90
2023-03-02T06:48:40.522Z,4.90
2023-03-02T06:49:42.225Z,4.90
2023-03-02T06:50:44.501Z,4.90
2023-03-02T06:51:48.903Z,4.90
2023-03-02T06:52:50.647Z,5.00
2023-03-02T06:53:52.368Z,4.90
2023-03-02T06:54:57.315Z,4.90
2023-03-02T06:56:00.437Z,5.00
2023-03-02T06:57:02.262Z,4.90
2023-03-02T06:58:04.133Z,4.90
2023-03-02T06:59:05.834Z,4.90
2023-03-02T07:00:11.528Z,4.90
2023-03-02T07:01:13.583Z,4.90
2023-03-02T07:02:15.239Z,4.90
2023-03-02T07:03:17.361Z,4.90
2023-03-02T07:04:19.211Z,4.80
2023-03-02T07:05:21.978Z,4.80
2023-03-02T07:06:23.570Z,4.80
2023-03-02T07:07:25.381Z,4.70
2023-03-02T07:08:27.412Z,4.70
2023-03-02T07:09:33.969Z,4.70
2023-03-02T07:10:37.472Z,4.70
2023-03-02T07:11:39.105Z,4.70
2023-03-02T07:12:42.547Z,4.70
2023-03-02T07:13:44.214Z,4.70
2023-03-02T07:14:47.466Z,4.60
2023-03-02T07:15:52.106Z,4.60
2023-03-02T07:16:57.666Z,4.60
2023-03-02T07:18:00.469Z,4.60
2023-03-02T07:19:02.134Z,4.60
2023-03-02T07:20:05.831Z,4.50
2023-03-02T07:21:07.891Z,4.50
2023-03-02T07:22:09.569Z,4.50
2023-03-02T07:23:12.288Z,4.50
2023-03-02T07:24:14.162Z,4.50
2023-03-02T07:25:15.877Z,4.50
2023-03-02T07:26:17.655Z,4.50
2023-03-02T07:27:19.345Z,4.50
2023-03-02T07:28:24.058Z,4.50
2023-03-02T07:29:25.707Z,4.60
2023-03-02T07:30:27.469Z,4.60
2023-03-02T07:31:32.288Z,4.60
2023-03-02T07:32:34.593Z,4.60
2023-03-02T07:33:51.593Z,4.60
2023-03-02T07:34:53.473Z,4.60
2023-03-02T07:35:56.242Z,4.60
2023-03-02T07:36:57.977Z,4.60
2023-03-02T07:37:59.948Z,4.60
2023-03-02T07:39:04.369Z,4.60
2023-03-02T07:40:07.620Z,4.60
2023-03-02T07:41:10.207Z,4.60
2023-03-02T07:42:12.779Z,4.60
2023-03-02T07:43:14.421Z,4.60
2023-03-02T07:44:16.451Z,4.60
2023-03-02T07:45:21.788Z,4.70
2023-03-02T07:46:23.438Z,4.70
2023-03-02T07:47:25.375Z,4.70
2023-03-02T07:48:28.051Z,4.70
2023-03-02T07:49:29.948Z,4.70
2023-03-02T07:50:32.444Z,4.80
2023-03-02T07:51:34.383Z,4.80
2023-03-02T07:52:36.167Z,4.90
2023-03-02T07:53:38.744Z,4.90
2023-03-02T07:54:41.455Z,4.90
2023-03-02T07:55:43.172Z,4.90
2023-03-02T07:56:44.810Z,4.90
2023-03-02T07:57:46.540Z,4.90
2023-03-02T07:58:48.414Z,4.90
2023-03-02T07:59:50.608Z,4.90
2023-03-02T08:00:52.598Z,4.90
2023-03-02T08:01:54.761Z,4.90
2023-03-02T08:02:56.658Z,4.90
2023-03-02T08:03:58.735Z,4.90
2023-03-02T08:05:00.528Z,5.00
2023-03-02T08:06:08.036Z,5.00
2023-03-02T08:07:10.230Z,5.10
2023-03-02T08:08:12.319Z,5.10
2023-03-02T08:09:16.877Z,5.20
2023-03-02T08:10:19.604Z,5.20
2023-03-02T08:11:21.238Z,5.30
2023-03-02T08:12:23.338Z,5.30
2023-03-02T08:13:24.964Z,5.30
2023-03-02T08:14:27.157Z,5.40
2023-03-02T08:15:29.421Z,5.40
2023-03-02T08:16:31.520Z,5.40
2023-03-02T08:17:33.733Z,5.50
2023-03-02T08:18:37.764Z,5.50
2023-03-02T08:19:42.450Z,5.50
2023-03-02T08:20:44.066Z,5.60
2023-03-02T08:21:47.294Z,5.60
2023-03-02T08:22:49.081Z,5.60
2023-03-02T08:23:51.806Z,5.70
2023-03-02T08:24:53.480Z,5.80
2023-03-02T08:25:55.817Z,5.80
2023-03-02T08:27:01.217Z,5.80
2023-03-02T08:28:02.893Z,5.80
2023-03-02T08:29:07.128Z,5.90
2023-03-02T08:30:10.670Z,5.90
2023-03-02T08:31:13.923Z,6.00
2023-03-02T08:32:15.636Z,6.00
2023-03-02T08:33:17.522Z,6.10
2023-03-02T08:34:19.182Z,6.30
2023-03-02T08:35:22.628Z,6.20
2023-03-02T08:36:24.255Z,6.20
2023-03-02T08:37:27.041Z,6.30
2023-03-02T08:38:29.302Z,6.30
2023-03-02T08:39:32.213Z,6.30
2023-03-02T08:40:34.864Z,6.30
2023-03-02T08:41:36.640Z,6.30
2023-03-02T08:42:39.550Z,6.30
2023-03-02T08:43:41.343Z,6.30
2023-03-02T08:44:43.348Z,6.30
2023-03-02T08:45:46.700Z,6.30
2023-03-02T08:46:51.035Z,6.40
2023-03-02T08:47:56.236Z,6.40
2023-03-02T08:48:57.846Z,6.40
2023-03-02T08:49:59.747Z,6.40
2023-03-02T08:51:05.638Z,6.50
2023-03-02T08:52:09.958Z,6.60
2023-03-02T08:53:14.735Z,6.60
2023-03-02T08:54:16.399Z,6.60
2023-03-02T08:55:19.701Z,6.70
2023-03-02T08:56:34.293Z,6.70
2023-03-02T08:57:37.233Z,6.70
2023-03-02T08:58:38.838Z,6.80
2023-03-02T08:59:40.521Z,6.80
2023-03-02T09:00:45.354Z,6.90
2023-03-02T09:01:47.099Z,6.90
2023-03-02T09:02:48.813Z,6.90
2023-03-02T09:03:52.635Z,6.90
2023-03-02T09:04:57.986Z,6.90
2023-03-02T09:05:59.814Z,6.90
2023-03-02T09:07:01.452Z,6.90
2023-03-02T09:08:04.372Z,7.00
2023-03-02T09:09:07.434Z,7.00
2023-03-02T09:10:09.814Z,7.00
2023-03-02T09:11:11.677Z,7.10
2023-03-02T09:12:13.410Z,7.10
2023-03-02T09:13:15.073Z,7.10
2023-03-02T09:14:17.917Z,7.20
2023-03-02T09:15:19.725Z,7.20
2023-03-02T09:16:27.974Z,7.20
2023-03-02T09:17:29.625Z,7.10
2023-03-02T09:18:37.802Z,7.20
2023-03-02T09:19:47.532Z,7.10
2023-03-02T09:20:54.248Z,7.10
2023-03-02T09:21:55.929Z,7.20
2023-03-02T09:22:57.866Z,7.10
2023-03-02T09:23:59.744Z,7.20
2023-03-02T09:25:06.589Z,7.10
2023-03-02T09:26:09.996Z,7.10
2023-03-02T09:27:13.169Z,7.10
2023-03-02T09:28:15.501Z,7.10
2023-03-02T09:29:17.193Z,7.20
2023-03-02T09:30:19.005Z,7.10
2023-03-02T09:31:20.990Z,7.10
2023-03-02T09:32:23.091Z,7.20
2023-03-02T09:33:26.205Z,7.10
2023-03-02T09:34:28.327Z,7.10
2023-03-02T09:35:29.947Z,7.10
2023-03-02T09:36:32.979Z,7.10
2023-03-02T09:37:38.053Z,7.10
2023-03-02T09:38:39.742Z,7.10
2023-03-02T09:39:42.821Z,7.10
2023-03-02T09:40:59.717Z,7.20
2023-03-02T09:42:18.893Z,7.20
2023-03-02T09:43:39.095Z,7.20
2023-03-02T09:45:10.440Z,7.30
2023-03-02T09:46:16.553Z,7.40
2023-03-02T09:47:43.149Z,7.50
2023-03-02T09:49:03.188Z,7.50
2023-03-02T09:50:17.731Z,7.60
2023-03-02T09:51:51.698Z,7.60
2023-03-02T09:53:18.210Z,7.60
2023-03-02T09:54:28.115Z,7.60
2023-03-02T09:55:34.855Z,7.60
2023-03-02T09:56:48.166Z,7.60
2023-03-02T09:57:51.925Z,7.60
2023-03-02T09:59:04.953Z,7.70
2023-03-02T10:00:20.399Z,7.70
2023-03-02T10:01:51.639Z,7.70
2023-03-02T10:03:02.462Z,7.80
2023-03-02T10:04:28.148Z,7.80
2023-03-02T10:05:42.761Z,7.80
2023-03-02T10:06:45.547Z,7.90
2023-03-02T10:07:48.385Z,7.90
2023-03-02T10:08:51.036Z,7.90
2023-03-02T10:09:56.059Z,7.90
2023-03-02T10:11:07.897Z,7.90
2023-03-02T10:12:28.184Z,8.00
2023-03-02T10:13:35.795Z,8.00
2023-03-02T10:14:58.866Z,8.00
2023-03-02T10:16:11.341Z,8.10
2023-03-02T10:17:43.520Z,8.10
2023-03-02T10:19:10.353Z,8.20
2023-03-02T10:20:24.628Z,8.20
2023-03-02T10:21:35.412Z,8.30
2023-03-02T10:22:45.766Z,8.30
2023-03-02T10:24:16.886Z,8.30
2023-03-02T10:25:37.572Z,8.30
2023-03-02T10:26:45.895Z,8.40
2023-03-02T10:27:53.214Z,8.40
2023-03-02T10:29:10.573Z,8.40
2023-03-02T10:30:27.707Z,8.50
2023-03-02T10:31:32.124Z,8.40
2023-03-02T10:32:41.868Z,8.50
2023-03-02T10:33:47.928Z,8.50
2023-03-02T10:34:52.175Z,8.60
2023-03-02T10:35:54.090Z,8.60
2023-03-02T10:37:09.556Z,8.70
2023-03-02T10:38:17.046Z,8.70
2023-03-02T10:39:18.743Z,8.80
2023-03-02T10:40:47.755Z,8.80
2023-03-02T10:42:10.798Z,8.90
2023-03-02T10:43:33.776Z,8.90
2023-03-02T10:44:40.568Z,8.90
2023-03-02T10:45:43.861Z,9.00
2023-03-02T10:46:46.574Z,9.00
2023-03-02T10:47:49.242Z,9.00
2023-03-02T10:49:01.510Z,9.10
2023-03-02T10:50:03.422Z,9.10
2023-03-02T10:51:07.729Z,9.10
2023-03-02T10:52:24.850Z,9.10
2023-03-02T10:53:30.213Z,9.10
2023-03-02T10:54:34.324Z,9.20
2023-03-02T10:55:45.286Z,9.10
2023-03-02T10:56:54.534Z,9.10
2023-03-02T10:58:06.156Z,9.20
2023-03-02T10:59:28.812Z,9.20
2023-03-02T11:00:32.697Z,9.30
2023-03-02T11:01:34.389Z,9.20
2023-03-02T11:02:37.433Z,9.30
2023-03-02T11:03:39.856Z,9.20
2023-03-02T11:04:42.266Z,9.20
2023-03-02T11:05:45.761Z,9.20
2023-03-02T11:06:48.835Z,9.20
2023-03-02T11:08:11.279Z,9.30
2023-03-02T11:09:14.602Z,9.30
2023-03-02T11:10:22.656Z,9.30
2023-03-02T11:11:33.082Z,9.40
2023-03-02T11:12:37.231Z,9.50
2023-03-02T11:13:39.504Z,9.50
2023-03-02T11:14:42.605Z,9.60
2023-03-02T11:15:47.813Z,9.60
2023-03-02T11:16:51.844Z,9.60
2023-03-02T11:18:05.541Z,9.60
2023-03-02T11:19:31.196Z,9.70
2023-03-02T11:20:37.816Z,9.70
2023-03-02T11:21:41.224Z,9.70
2023-03-02T11:23:10.259Z,9.60
2023-03-02T11:24:21.747Z,9.60
2023-03-02T11:25:36.836Z,9.60
2023-03-02T11:26:59.550Z,9.60
2023-03-02T11:28:11.327Z,9.50
2023-03-02T11:29:22.533Z,9.60
2023-03-02T11:30:27.215Z,9.50
2023-03-02T11:31:39.350Z,9.50
2023-03-02T11:33:03.569Z,9.60
2023-03-02T11:34:21.326Z,9.60
2023-03-02T11:35:32.238Z,9.60
2023-03-02T11:36:47.690Z,9.60
2023-03-02T11:37:55.129Z,9.70
2023-03-02T11:38:58.064Z,9.70
2023-03-02T11:40:05.648Z,9.70
2023-03-02T11:41:27.452Z,9.70
2023-03-02T11:42:33.450Z,9.70
2023-03-02T11:43:35.184Z,9.70
2023-03-02T11:44:36.791Z,9.80
2023-03-02T11:45:44.983Z,9.80
2023-03-02T11:46:49.402Z,9.80
2023-03-02T11:48:05.544Z,9.90
2023-03-02T11:49:16.391Z,9.90
2023-03-02T11:50:19.609Z,10.00
2023-03-02T11:51:30.195Z,10.00
2023-03-02T11:52:36.861Z,10.10
2023-03-02T11:53:46.308Z,10.10
2023-03-02T11:54:59.534Z,10.00
2023-03-02T11:56:01.245Z,10.00
2023-03-02T11:57:04.284Z,10.00
2023-03-02T11:58:07.967Z,10.00
2023-03-02T11:59:19.332Z,10.00
2023-03-02T12:00:47.634Z,10.10
2023-03-02T12:01:53.385Z,10.10
2023-03-02T12:03:08.579Z,10.20
2023-03-02T12:04:27.599Z,10.20
2023-03-02T12:05:35.624Z,10.30
2023-03-02T12:06:42.034Z,10.30
2023-03-02T12:07:44.754Z,10.30
2023-03-02T12:08:51.442Z,10.40
2023-03-02T12:10:06.933Z,10.40
2023-03-02T12:11:36.308Z,10.50
2023-03-02T12:12:43.177Z,10.50
2023-03-02T12:13:48.727Z,10.50
2023-03-02T12:14:50.679Z,10.60
2023-03-02T12:15:53.745Z,10.60
2023-03-02T12:17:26.623Z,10.60
2023-03-02T12:18:44.591Z,10.50
2023-03-02T12:19:46.656Z,10.50
2023-03-02T12:21:03.599Z,10.50
2023-03-02T12:22:09.812Z,10.60
2023-03-02T12:23:24.113Z,10.60
2023-03-02T12:24:33.280Z,10.80
2023-03-02T12:25:45.284Z,10.70
2023-03-02T12:26:46.926Z,10.70
2023-03-02T12:27:51.840Z,10.70
2023-03-02T12:29:07.796Z,10.70
2023-03-02T12:30:30.358Z,10.70
2023-03-02T12:31:44.152Z,10.70
2023-03-02T12:33:24.747Z,10.80
2023-03-02T12:34:39.177Z,10.90
2023-03-02T12:35:41.095Z,10.90
2023-03-02T12:36:43.927Z,10.90
2023-03-02T12:37:57.190Z,11.00
2023-03-02T12:39:09.796Z,11.00
2023-03-02T12:40:40.051Z,11.10
2023-03-02T12:42:21.105Z,11.10
2023-03-02T12:43:40.824Z,11.20
2023-03-02T12:44:55.584Z,11.20
2023-03-02T12:46:13.840Z,11.20
2023-03-02T12:47:27.453Z,11.20
2023-03-02T12:48:59.648Z,11.40
2023-03-02T12:50:17.287Z,11.30
2023-03-02T12:51:22.709Z,11.20
2023-03-02T12:52:36.782Z,11.30
2023-03-02T12:53:39.771Z,11.30
2023-03-02T12:54:41.440Z,11.30
2023-03-02T12:55:44.367Z,11.20
2023-03-02T12:56:47.076Z,11.30
2023-03-02T12:57:58.020Z,11.30
2023-03-02T12:58:59.959Z,11.30
2023-03-02T13:00:03.413Z,11.30
2023-03-02T13:01:05.826Z,11.30
2023-03-02T13:02:20.423Z,11.30
2023-03-02T13:03:22.696Z,11.40
2023-03-02T13:04:28.113Z,11.50
2023-03-02T13:05:33.576Z,11.50
2023-03-02T13:06:39.545Z,11.60
2023-03-02T13:07:53.827Z,11.60
2023-03-02T13:08:57.628Z,11.70
2023-03-02T13:09:59.761Z,11.80
2023-03-02T13:11:04.037Z,11.80
2023-03-02T13:12:13.974Z,11.90
2023-03-02T13:13:22.789Z,12.00
2023-03-02T13:14:30.631Z,12.00
2023-03-02T13:15:34.735Z,12.10
2023-03-02T13:16:37.088Z,12.20
2023-03-02T13:17:39.514Z,12.20
2023-03-02T13:18:44.012Z,12.30
2023-03-02T13:19:46.727Z,12.30
2023-03-02T13:20:51.081Z,12.30
2023-03-02T13:21:53.486Z,12.30
2023-03-02T13:22:56.400Z,12.40
2023-03-02T13:23:59.228Z,12.40
2023-03-02T13:25:12.780Z,12.40
2023-03-02T13:26:31.074Z,12.40
2023-03-02T13:27:34.073Z,12.50
2023-03-02T13:28:39.832Z,12.60
2023-03-02T13:29:41.774Z,12.60
2023-03-02T13:30:48.425Z,12.60
2023-03-02T13:31:51.479Z,12.70
2023-03-02T13:33:38.790Z,12.80
2023-03-02T13:34:48.982Z,12.80
2023-03-02T13:35:51.249Z,12.90
2023-03-02T13:36:53.770Z,12.90
2023-03-02T13:38:17.760Z,13.00
2023-03-02T13:42:40.550Z,13.10
2023-03-02T13:43:50.443Z,13.00
2023-03-02T13:44:57.580Z,13.00
2023-03-02T13:46:08.252Z,12.90
2023-03-02T13:47:45.328Z,12.90
2023-03-02T13:49:13.964Z,12.80
2023-03-02T13:50:31.174Z,12.80
2023-03-02T13:51:46.582Z,12.80
2023-03-02T13:52:49.468Z,12.70
2023-03-02T13:53:54.954Z,12.70
2023-03-02T13:54:56.625Z,12.70
2023-03-02T13:56:00.264Z,12.80
2023-03-02T13:57:04.187Z,13.00
2023-03-02T13:58:13.625Z,13.00
2023-03-02T13:59:19.038Z,13.00
2023-03-02T14:00:24.994Z,13.10
2023-03-02T14:01:28.090Z,13.10
2023-03-02T14:02:30.538Z,13.10
2023-03-02T14:03:32.317Z,13.10
2023-03-02T14:04:34.019Z,13.10
2023-03-02T14:05:35.780Z,13.10
2023-03-02T14:06:37.549Z,13.20
2023-03-02T14:07:39.140Z,13.20
2023-03-02T14:08:40.778Z,13.30
2023-03-02T14:09:42.514Z,13.20
2023-03-02T14:10:44.200Z,13.20
2023-03-02T14:11:50.349Z,13.20
2023-03-02T14:13:09.569Z,13.20
2023-03-02T14:14:16.622Z,13.30
2023-03-02T14:15:18.402Z,13.30
2023-03-02T14:16:20.430Z,13.40
2023-03-02T14:17:24.636Z,13.40
2023-03-02T14:18:34.916Z,13.50
2023-03-02T14:19:36.534Z,13.40
2023-03-02T14:20:38.222Z,13.40
2023-03-02T14:21:43.177Z,13.40
2023-03-02T14:22:47.464Z,13.40
2023-03-02T14:23:50.304Z,13.40
2023-03-02T14:24:52.135Z,13.50
2023-03-02T14:25:55.876Z,13.40
2023-03-02T14:26:58.184Z,13.50
2023-03-02T14:27:59.843Z,13.50
2023-03-02T14:29:07.092Z,13.50
2023-03-02T14:30:17.887Z,13.60
2023-03-02T14:31:20.939Z,13.60
2023-03-02T14:32:22.850Z,13.70
2023-03-02T14:33:28.097Z,13.80
2023-03-02T14:34:30.388Z,13.90
2023-03-02T14:35:32.102Z,14.00
2023-03-02T14:36:34.734Z,14.10
2023-03-02T14:37:36.361Z,14.10
2023-03-02T14:38:38.025Z,14.20